Time;durP1;ratioP1;P1;durP2;ratioP2;P2;SDS_P1;SDS_P2;PMS_P1;PMS_P2;Temp;Humidity;BMP_temperature;BMP_pressure;BME280_temperature;BME280_humidity;BME280_pressure;Samples;Min_cycle;Max_cycle;Signal;HPM_P1;HPM_P2
2023/10/23 00:01:07;;;;;;;7.00;6.30;;;;;;;12.88;99.70;100043.61;108317;277;898754;-70
2023/10/23 00:03:52;;;;;;;8.00;6.20;;;;;;;12.89;99.64;100047.60;108993;277;38655;-66
2023/10/23 00:06:32;;;;;;;;;;;;;;;12.87;99.66;100049.06;108976;277;38239;-66
2023/10/23 00:09:12;;;;;;;9.60;5.30;;;;;;;12.81;99.69;100052.58;108972;277;38423;-66
2023/10/23 00:11:55;;;;;;;5.60;4.90;;;;;;;12.79;99.49;100049.16;108956;277;38256;-67
2023/10/23 00:14:31;;;;;;;5.40;4.80;;;;;;;12.76;99.62;100051.97;108953;277;38224;-70
2023/10/23 00:17:08;;;;;;;5.70;4.70;;;;;;;12.75;99.69;100057.94;109001;277;38788;-70
2023/10/23 00:19:49;;;;;;;5.30;4.00;;;;;;;12.75;99.68;100058.46;109039;277;40121;-67
2023/10/23 00:22:32;;;;;;;5.10;4.10;;;;;;;12.73;99.64;100061.89;108938;277;38227;-67
2023/10/23 00:25:10;;;;;;;5.20;4.50;;;;;;;12.73;99.67;100061.39;108961;277;38570;-66
2023/10/23 00:27:47;;;;;;;4.80;4.30;;;;;;;12.73;99.72;100067.16;108977;277;39288;-70
2023/10/23 00:30:21;;;;;;;7.70;4.20;;;;;;;12.72;99.76;100072.48;108980;277;38622;-70
2023/10/23 00:32:59;;;;;;;4.40;4.00;;;;;;;12.71;99.44;100075.67;109031;277;39911;-67
2023/10/23 00:35:42;;;;;;;4.90;3.80;;;;;;;12.69;99.45;100074.58;108865;277;188456;-66
2023/10/23 00:38:21;;;;;;;4.20;3.70;;;;;;;12.68;99.73;100076.37;108983;277;38832;-71
2023/10/23 00:40:57;;;;;;;4.70;4.00;;;;;;;12.69;99.95;100082.96;108955;277;38795;-70
2023/10/23 00:43:31;;;;;;;4.50;3.70;;;;;;;12.71;99.86;100081.95;109019;277;38667;-70
2023/10/23 00:46:11;;;;;;;4.40;3.40;;;;;;;12.73;99.81;100083.64;108950;277;38318;-70
2023/10/23 00:48:50;;;;;;;4.50;4.10;;;;;;;12.72;99.67;100084.73;108998;277;38556;-66
2023/10/23 00:51:30;;;;;;;;;;;;;;;12.69;99.43;100085.42;108923;277;38480;-67
2023/10/23 00:54:09;;;;;;;5.80;4.80;;;;;;;12.62;99.60;100089.97;108965;277;38722;-66
2023/10/23 00:56:44;;;;;;;9.80;4.30;;;;;;;12.58;99.83;100092.77;108945;277;38770;-66
2023/10/23 00:59:22;;;;;;;4.30;3.90;;;;;;;12.57;99.73;100094.40;108997;277;39688;-70
2023/10/23 01:01:58;;;;;;;5.90;4.70;;;;;;;12.56;99.81;100094.80;108916;277;175385;-70
2023/10/23 01:04:32;;;;;;;6.30;4.60;;;;;;;12.58;99.98;100098.04;108370;277;894673;-70
2023/10/23 01:07:09;;;;;;;5.80;5.10;;;;;;;12.60;100.00;100098.98;108989;277;38349;-70
2023/10/23 01:09:45;;;;;;;7.10;5.60;;;;;;;12.63;100.00;100106.35;108964;277;38617;-70
2023/10/23 01:12:20;;;;;;;;;;;;;;;12.64;100.00;100109.75;108950;277;38909;-70
2023/10/23 01:14:55;;;;;;;7.10;5.70;;;;;;;12.66;100.00;100113.05;109010;277;38807;-70
2023/10/23 01:17:37;;;;;;;7.00;6.40;;;;;;;12.69;100.00;100116.40;108921;277;38459;-70
2023/10/23 01:20:13;;;;;;;9.70;7.10;;;;;;;12.69;100.00;100119.34;108942;277;39616;-66
2023/10/23 01:22:53;;;;;;;7.50;6.70;;;;;;;12.71;100.00;100124.85;108989;277;38477;-67
2023/10/23 01:25:32;;;;;;;7.30;6.00;;;;;;;12.70;100.00;100125.61;108938;277;38386;-67
2023/10/23 01:28:06;;;;;;;7.40;6.70;;;;;;;12.68;99.87;100128.86;108884;277;189024;-70
2023/10/23 01:30:40;;;;;;;9.40;6.40;;;;;;;12.67;99.90;100132.76;108938;277;39715;-70
2023/10/23 01:33:20;;;;;;;8.00;7.20;;;;;;;12.67;100.00;100138.02;108982;277;38527;-67
2023/10/23 01:35:58;;;;;;;7.90;6.40;;;;;;;12.65;99.91;100139.34;108947;277;39094;-68
2023/10/23 01:38:39;;;;;;;7.80;6.40;;;;;;;12.67;99.98;100142.05;108981;277;39261;-67
2023/10/23 01:41:21;;;;;;;7.40;6.50;;;;;;;12.68;99.93;100145.30;108964;277;38925;-66
2023/10/23 01:43:55;;;;;;;9.90;7.30;;;;;;;12.69;99.93;100141.94;108954;277;39732;-70
2023/10/23 01:46:29;;;;;;;9.50;7.40;;;;;;;12.67;99.90;100145.02;108938;277;38348;-70
2023/10/23 01:49:08;;;;;;;9.10;6.10;;;;;;;12.66;99.79;100145.58;108971;277;38606;-69
2023/10/23 01:51:45;;;;;;;8.10;6.30;;;;;;;12.68;99.92;100146.73;108962;277;39538;-70
2023/10/23 01:54:25;;;;;;;6.70;6.10;;;;;;;12.68;99.65;100148.80;108979;277;39591;-70
2023/10/23 01:57:03;;;;;;;8.20;6.80;;;;;;;12.64;99.34;100151.45;108977;277;38281;-70
2023/10/23 01:59:37;;;;;;;8.20;6.80;;;;;;;12.62;99.54;100152.80;109056;277;38176;-70
2023/10/23 02:02:12;;;;;;;7.30;6.60;;;;;;;12.63;99.78;100159.02;108924;277;38375;-70
2023/10/23 02:04:46;;;;;;;7.20;6.50;;;;;;;12.64;99.53;100159.52;109024;277;38479;-70
2023/10/23 02:07:22;;;;;;;8.20;5.70;;;;;;;12.65;99.62;100159.81;108972;277;38202;-69
2023/10/23 02:10:05;;;;;;;7.80;6.60;;;;;;;12.62;99.33;100161.33;108876;273;38157;-67
2023/10/23 02:12:43;;;;;;;6.70;6.00;;;;;;;12.62;99.35;100168.53;109235;268;38188;-68
2023/10/23 02:15:30;;;;;;;6.60;5.60;;;;;;;12.62;99.32;100173.42;109290;275;39404;-67
2023/10/23 02:18:07;;;;;;;6.30;5.00;;;;;;;12.61;98.79;100177.00;109367;275;38535;-70
2023/10/23 02:20:42;;;;;;;;;;;;;;;12.58;98.81;100175.03;109413;275;39458;-70
2023/10/23 02:23:20;;;;;;;7.90;5.90;;;;;;;12.53;98.84;100173.36;109400;275;38762;-70
2023/10/23 02:26:00;;;;;;;7.50;5.60;;;;;;;12.50;98.70;100169.84;109280;275;39482;-70
2023/10/23 02:28:37;;;;;;;9.10;7.10;;;;;;;12.47;98.35;100172.77;109342;275;39384;-71
2023/10/23 02:31:12;;;;;;;7.50;5.20;;;;;;;12.42;98.21;100174.07;109050;275;38325;-71
2023/10/23 02:33:47;;;;;;;6.40;5.30;;;;;;;12.39;98.05;100174.88;109344;275;38645;-67
2023/10/23 02:36:27;;;;;;;6.30;5.50;;;;;;;12.39;98.22;100173.69;109316;275;38840;-66
2023/10/23 02:39:04;;;;;;;6.50;5.20;;;;;;;12.35;98.11;100172.11;109252;275;189674;-66
2023/10/23 02:41:48;;;;;;;5.80;5.20;;;;;;;12.35;98.15;100177.36;109311;275;38512;-67
2023/10/23 02:44:24;;;;;;;6.10;5.50;;;;;;;12.34;98.06;100183.00;109309;275;38292;-72
2023/10/23 02:46:58;;;;;;;6.60;5.90;;;;;;;12.34;98.18;100185.83;109299;275;38130;-70
2023/10/23 02:49:32;;;;;;;7.40;5.40;;;;;;;12.34;98.32;100190.54;108620;276;559453;-69
2023/10/23 02:52:08;;;;;;;8.10;6.00;;;;;;;12.33;98.23;100193.56;109246;275;38473;-70
2023/10/23 02:54:50;;;;;;;6.50;5.80;;;;;;;12.33;98.24;100196.55;109282;275;39377;-66
2023/10/23 02:57:34;;;;;;;7.30;6.60;;;;;;;12.28;98.03;100196.60;109205;275;38769;-66
2023/10/23 03:00:20;;;;;;;6.50;5.70;;;;;;;12.27;98.41;100196.65;109257;275;38428;-67
2023/10/23 03:03:00;;;;;;;8.60;5.90;;;;;;;12.29;98.36;100198.84;109029;275;40457;-68
2023/10/23 03:05:40;;;;;;;7.50;5.90;;;;;;;12.27;98.03;100205.04;109135;275;175357;-66
2023/10/23 03:08:16;;;;;;;8.00;5.60;;;;;;;12.26;98.20;100207.35;109285;275;38158;-70
2023/10/23 03:10:51;;;;;;;8.20;5.60;;;;;;;12.27;98.40;100207.50;109245;275;38780;-70
2023/10/23 03:13:26;;;;;;;7.70;6.40;;;;;;;12.26;97.98;100209.48;109264;275;38278;-70
2023/10/23 03:16:02;;;;;;;7.40;5.40;;;;;;;12.23;97.67;100209.07;109233;275;39604;-71
2023/10/23 03:18:39;;;;;;;11.50;7.20;;;;;;;12.20;97.53;100206.09;109187;276;38462;-66
2023/10/23 03:21:15;;;;;;;7.20;6.30;;;;;;;12.17;97.58;100203.95;108985;276;40831;-66
2023/10/23 03:23:53;;;;;;;7.50;6.70;;;;;;;12.12;97.64;100209.09;109120;276;38470;-70
2023/10/23 03:26:27;;;;;;;7.90;6.40;;;;;;;12.08;97.51;100212.05;109155;276;38466;-70
2023/10/23 03:29:05;;;;;;;7.20;6.10;;;;;;;12.08;97.88;100210.68;109148;276;38391;-67
2023/10/23 03:31:45;;;;;;;7.80;6.70;;;;;;;12.10;97.80;100214.58;109145;276;39496;-67
2023/10/23 03:34:23;;;;;;;9.60;7.60;;;;;;;12.09;97.82;100220.08;109131;276;39409;-66
2023/10/23 03:37:06;;;;;;;9.80;7.60;;;;;;;12.07;97.85;100216.85;109084;276;38429;-66
2023/10/23 03:39:48;;;;;;;8.40;7.30;;;;;;;12.08;98.01;100215.73;109138;276;38320;-70
2023/10/23 03:42:26;;;;;;;10.40;8.00;;;;;;;12.11;98.01;100216.65;109017;276;171605;-70
2023/10/23 03:45:07;;;;;;;10.80;8.60;;;;;;;12.09;97.86;100217.77;109116;276;38009;-67
2023/10/23 03:47:47;;;;;;;10.90;9.00;;;;;;;12.08;97.97;100216.27;109130;276;38367;-68
2023/10/23 03:50:33;;;;;;;10.20;8.90;;;;;;;12.07;98.03;100216.30;109102;276;38746;-67
2023/10/23 03:53:09;;;;;;;9.50;8.50;;;;;;;12.08;98.19;100228.15;109177;276;38358;-70
2023/10/23 03:55:44;;;;;;;13.20;9.20;;;;;;;12.09;97.86;100227.58;109095;276;39516;-70
2023/10/23 03:58:23;;;;;;;11.20;8.80;;;;;;;12.06;97.74;100227.91;109147;276;39394;-70
2023/10/23 04:01:00;;;;;;;9.50;8.40;;;;;;;12.01;97.62;100227.59;109156;276;38232;-70
2023/10/23 04:03:37;;;;;;;10.20;8.60;;;;;;;12.02;97.89;100225.14;109135;276;39614;-67
2023/10/23 04:06:17;;;;;;;9.10;8.20;;;;;;;12.00;97.85;100223.98;109140;276;39890;-67
2023/10/23 04:08:58;;;;;;;9.20;8.30;;;;;;;12.01;97.94;100220.79;109089;276;38312;-70
2023/10/23 04:11:32;;;;;;;10.60;8.40;;;;;;;11.98;97.80;100219.38;109096;276;38195;-70
2023/10/23 04:14:16;;;;;;;10.60;8.00;;;;;;;11.98;98.14;100223.88;109135;276;38281;-67
2023/10/23 04:16:54;;;;;;;11.90;8.50;;;;;;;11.98;97.98;100225.30;109120;275;38187;-66
2023/10/23 04:19:30;;;;;;;9.80;8.70;;;;;;;11.98;98.12;100225.63;109170;275;38428;-72
2023/10/23 04:22:07;;;;;;;11.90;8.90;;;;;;;11.98;98.14;100221.96;109062;275;38715;-70
2023/10/23 04:24:42;;;;;;;11.30;8.30;;;;;;;12.02;98.37;100221.27;109231;275;38978;-70
2023/10/23 04:27:16;;;;;;;10.20;8.40;;;;;;;12.05;98.19;100222.17;109185;275;38739;-70
2023/10/23 04:29:53;;;;;;;11.90;9.60;;;;;;;12.03;97.71;100222.44;109190;275;38589;-70
2023/10/23 04:32:34;;;;;;;10.40;9.10;;;;;;;12.01;97.87;100223.05;109148;275;38845;-70
2023/10/23 04:35:15;;;;;;;11.90;9.70;;;;;;;11.97;97.82;100221.69;109142;275;39940;-67
2023/10/23 04:37:52;;;;;;;10.10;8.90;;;;;;;11.97;98.01;100223.27;109196;275;38929;-70
2023/10/23 04:40:28;;;;;;;10.10;9.00;;;;;;;11.98;97.99;100225.86;109181;275;38519;-70
2023/10/23 04:43:04;;;;;;;9.20;8.10;;;;;;;12.00;98.05;100225.72;109214;275;38235;-70
2023/10/23 04:45:40;;;;;;;12.90;9.40;;;;;;;12.01;98.20;100226.20;109146;275;39641;-70
2023/10/23 04:48:14;;;;;;;11.00;9.20;;;;;;;12.00;97.88;100230.80;109174;275;39374;-70
2023/10/23 04:50:49;;;;;;;15.10;9.40;;;;;;;11.99;97.97;100227.53;109142;275;39757;-70
2023/10/23 04:53:23;;;;;;;10.70;8.80;;;;;;;11.99;97.91;100236.61;109203;275;38337;-72
2023/10/23 04:56:00;;;;;;;12.40;9.90;;;;;;;11.99;97.91;100238.88;109181;275;38354;-70
2023/10/23 04:58:40;;;;;;;12.80;10.40;;;;;;;11.99;98.06;100249.21;109217;275;39687;-68
2023/10/23 05:01:27;;;;;;;11.50;9.60;;;;;;;11.96;97.88;100253.19;109141;275;38283;-67
2023/10/23 05:04:06;;;;;;;14.10;9.10;;;;;;;11.93;97.82;100262.24;109200;275;38274;-70
2023/10/23 05:06:39;;;;;;;11.60;8.60;;;;;;;11.93;98.02;100264.17;109183;275;38346;-70
2023/10/23 05:09:13;;;;;;;12.20;8.50;;;;;;;11.96;98.33;100265.23;109155;275;39064;-70
2023/10/23 05:11:48;;;;;;;11.30;9.10;;;;;;;12.00;98.26;100269.98;109145;275;38393;-70
2023/10/23 05:14:28;;;;;;;12.20;9.90;;;;;;;12.00;98.46;100267.88;109186;275;38253;-67
2023/10/23 05:17:15;;;;;;;13.20;9.20;;;;;;;11.99;98.26;100272.45;109148;275;38170;-68
2023/10/23 05:20:02;;;;;;;12.00;8.50;;;;;;;11.98;98.10;100275.31;109148;275;38597;-68
2023/10/23 05:22:50;;;;;;;10.20;8.60;;;;;;;11.98;98.14;100274.79;109216;275;38700;-69
2023/10/23 05:25:24;;;;;;;;;;;;;;;11.97;98.05;100281.61;109049;275;175332;-68
2023/10/23 05:27:59;;;;;;;13.10;9.40;;;;;;;11.95;98.49;100291.90;109186;275;38358;-70
2023/10/23 05:30:37;;;;;;;12.70;9.40;;;;;;;11.95;98.40;100294.33;109166;275;38424;-70
2023/10/23 05:33:12;;;;;;;11.10;9.30;;;;;;;11.94;98.41;100303.45;109025;275;39020;-71
2023/10/23 05:35:45;;;;;;;10.50;8.90;;;;;;;11.98;98.62;100310.97;109288;275;38257;-71
2023/10/23 05:38:20;;;;;;;12.50;9.30;;;;;;;12.01;98.73;100312.40;109303;275;39639;-68
2023/10/23 05:41:07;;;;;;;16.20;10.00;;;;;;;12.04;98.62;100312.09;109279;275;38496;-67
2023/10/23 05:43:44;;;;;;;11.50;8.60;;;;;;;12.03;98.36;100317.03;109299;275;38480;-70
2023/10/23 05:46:20;;;;;;;10.80;8.80;;;;;;;12.02;98.16;100320.23;109292;275;38291;-70
2023/10/23 05:48:54;;;;;;;14.00;10.40;;;;;;;12.01;98.29;100319.23;109383;275;38459;-70
2023/10/23 05:51:31;;;;;;;10.90;9.80;;;;;;;12.03;98.51;100321.42;109287;275;38732;-70
2023/10/23 05:54:05;;;;;;;14.20;10.20;;;;;;;12.05;98.46;100327.79;109358;275;38751;-70
2023/10/23 05:56:42;;;;;;;11.30;9.60;;;;;;;12.06;98.55;100331.05;109364;275;38541;-69
2023/10/23 05:59:24;;;;;;;11.20;9.70;;;;;;;12.10;98.73;100339.45;109375;275;38941;-67
2023/10/23 06:02:07;;;;;;;14.30;10.30;;;;;;;12.12;98.68;100343.73;109380;275;39505;-67
2023/10/23 06:04:49;;;;;;;12.40;11.10;;;;;;;12.16;98.99;100349.84;109343;275;39084;-70
2023/10/23 06:07:29;;;;;;;14.20;10.20;;;;;;;12.18;98.98;100354.98;109423;275;39426;-71
2023/10/23 06:10:10;;;;;;;14.70;10.80;;;;;;;12.20;98.80;100361.23;109389;275;38454;-68
2023/10/23 06:12:48;;;;;;;13.20;10.50;;;;;;;12.21;98.71;100364.30;109385;275;38383;-71
2023/10/23 06:15:23;;;;;;;14.40;10.80;;;;;;;12.24;98.71;100373.27;109333;275;38652;-71
2023/10/23 06:17:59;;;;;;;12.30;10.40;;;;;;;12.26;98.69;100376.84;109352;275;38817;-71
2023/10/23 06:20:33;;;;;;;14.00;11.00;;;;;;;12.27;98.71;100379.44;109297;275;38780;-71
2023/10/23 06:23:10;;;;;;;14.60;10.70;;;;;;;12.27;98.58;100378.72;109360;275;38693;-71
2023/10/23 06:25:44;;;;;;;16.40;10.70;;;;;;;12.32;98.80;100381.14;109276;275;39414;-70
2023/10/23 06:28:18;;;;;;;13.10;10.50;;;;;;;12.40;99.08;100383.20;109370;275;39423;-70
2023/10/23 06:31:00;;;;;;;14.10;11.30;;;;;;;12.49;99.57;100380.01;109355;275;38263;-70
2023/10/23 06:33:36;;;;;;;16.00;10.80;;;;;;;12.56;99.66;100380.04;109387;275;39659;-67
2023/10/23 06:36:19;;;;;;;13.80;11.30;;;;;;;12.61;99.33;100379.63;109328;275;39020;-66
2023/10/23 06:38:56;;;;;;;14.60;11.40;;;;;;;12.64;99.18;100381.05;109286;275;39064;-66
2023/10/23 06:41:34;;;;;;;15.50;12.00;;;;;;;12.63;98.56;100390.70;109160;275;174913;-67
2023/10/23 06:44:11;;;;;;;15.20;11.50;;;;;;;12.61;98.49;100392.56;109389;275;38244;-71
2023/10/23 06:46:45;;;;;;;14.60;10.50;;;;;;;12.61;98.63;100399.23;109392;275;38454;-69
2023/10/23 06:49:20;;;;;;;12.10;10.50;;;;;;;12.60;98.42;100395.23;109019;275;38806;-69
2023/10/23 06:51:57;;;;;;;14.20;10.70;;;;;;;12.64;98.89;100399.77;109214;275;40390;-70
2023/10/23 06:54:34;;;;;;;15.20;12.10;;;;;;;12.72;99.01;100402.41;109273;275;39828;-70
2023/10/23 06:57:15;;;;;;;15.30;12.30;;;;;;;12.79;99.35;100403.98;108539;275;897976;-71
2023/10/23 06:59:50;;;;;;;14.90;12.40;;;;;;;12.87;99.77;100410.98;109262;275;38946;-70
2023/10/23 07:02:28;;;;;;;17.60;11.60;;;;;;;12.95;99.59;100408.35;109259;275;39864;-70
2023/10/23 07:05:02;;;;;;;14.30;11.60;;;;;;;12.99;99.32;100410.95;109231;275;39628;-70
2023/10/23 07:07:36;;;;;;;15.60;12.20;;;;;;;13.04;99.09;100410.19;109262;275;38240;-69
2023/10/23 07:10:14;;;;;;;15.20;12.40;;;;;;;13.10;99.22;100414.63;109225;275;38627;-70
2023/10/23 07:12:48;;;;;;;21.30;13.40;;;;;;;13.17;99.58;100416.22;109250;275;39307;-69
2023/10/23 07:15:25;;;;;;;15.40;11.90;;;;;;;13.26;99.92;100417.20;109059;275;40418;-70
2023/10/23 07:18:02;;;;;;;15.10;11.80;;;;;;;13.36;99.91;100416.35;109226;275;39557;-71
2023/10/23 07:20:37;;;;;;;15.10;11.60;;;;;;;13.44;99.32;100421.07;109213;275;38346;-71
2023/10/23 07:23:18;;;;;;;18.40;13.20;;;;;;;13.48;98.61;100421.55;109215;275;38666;-66
2023/10/23 07:26:10;;;;;;;16.80;12.60;;;;;;;13.49;98.29;100416.79;109195;275;38323;-67
2023/10/23 07:28:47;;;;;;;18.20;14.30;;;;;;;13.48;97.81;100423.84;109192;275;38251;-66
2023/10/23 07:31:25;;;;;;;20.80;13.30;;;;;;;13.45;97.66;100432.23;109064;275;188437;-67
2023/10/23 07:34:03;;;;;;;17.70;13.60;;;;;;;13.42;97.49;100432.17;109218;275;39311;-67
2023/10/23 07:36:43;;;;;;;17.50;15.00;;;;;;;13.41;97.13;100433.64;109200;275;38888;-66
2023/10/23 07:39:24;;;;;;;21.80;17.00;;;;;;;13.44;97.23;100436.50;109177;275;39307;-67
2023/10/23 07:42:06;;;;;;;18.80;16.60;;;;;;;13.40;96.85;100437.17;109028;275;175296;-67
2023/10/23 07:44:55;;;;;;;23.10;18.00;;;;;;;13.36;96.89;100440.02;109243;275;38258;-66
2023/10/23 07:47:37;;;;;;;20.40;16.70;;;;;;;13.33;96.64;100439.29;109194;275;38229;-69
2023/10/23 07:50:13;;;;;;;19.30;15.80;;;;;;;13.32;96.88;100440.76;109178;275;38220;-66
2023/10/23 07:52:49;;;;;;;24.90;17.70;;;;;;;13.36;97.06;100443.17;109184;275;38326;-69
2023/10/23 07:55:25;;;;;;;23.00;16.60;;;;;;;13.42;97.34;100441.30;109239;275;38944;-70
2023/10/23 07:58:03;;;;;;;25.00;18.60;;;;;;;13.48;97.56;100446.27;109204;275;38227;-67
2023/10/23 08:00:38;;;;;;;22.00;17.80;;;;;;;13.54;97.42;100445.97;109162;275;39653;-66
2023/10/23 08:03:18;;;;;;;21.60;17.60;;;;;;;13.60;97.05;100444.48;109200;275;38761;-70
2023/10/23 08:05:56;;;;;;;18.80;16.20;;;;;;;13.63;96.91;100445.16;109178;275;38189;-70
2023/10/23 08:08:33;;;;;;;22.60;17.60;;;;;;;13.68;96.92;100451.77;109090;275;38241;-69
2023/10/23 08:11:10;;;;;;;20.40;16.90;;;;;;;13.78;97.28;100453.95;109139;275;39997;-70
2023/10/23 08:13:45;;;;;;;18.40;16.30;;;;;;;13.85;97.25;100453.05;109189;275;38611;-67
2023/10/23 08:16:25;;;;;;;22.20;16.10;;;;;;;13.90;97.19;100448.77;109143;275;38428;-67
2023/10/23 08:19:10;;;;;;;18.80;15.70;;;;;;;13.97;96.73;100449.26;109189;275;38325;-70
2023/10/23 08:21:48;;;;;;;17.00;14.50;;;;;;;14.06;96.92;100448.81;109172;275;38978;-71
2023/10/23 08:24:31;;;;;;;18.30;14.70;;;;;;;14.15;96.38;100450.64;109208;275;39865;-67
2023/10/23 08:27:09;;;;;;;18.80;15.20;;;;;;;14.22;96.30;100456.75;109175;275;38607;-68
2023/10/23 08:29:51;;;;;;;20.90;16.80;;;;;;;14.26;96.07;100457.95;109181;275;39403;-68
2023/10/23 08:32:35;;;;;;;18.60;14.80;;;;;;;14.33;96.04;100459.35;109248;275;38753;-67
2023/10/23 08:35:11;;;;;;;17.90;15.30;;;;;;;14.36;95.29;100461.31;109175;275;38488;-68
2023/10/23 08:37:46;;;;;;;19.50;16.60;;;;;;;14.39;94.90;100456.75;109210;275;38464;-67
2023/10/23 08:40:24;;;;;;;23.00;18.50;;;;;;;14.38;94.27;100454.50;109192;275;38445;-67
2023/10/23 08:43:01;;;;;;;24.40;18.10;;;;;;;14.37;93.63;100454.38;109186;275;38348;-69
2023/10/23 08:45:36;;;;;;;24.50;19.30;;;;;;;14.40;93.44;100453.86;109182;275;38670;-70
2023/10/23 08:48:13;;;;;;;22.60;16.60;;;;;;;14.45;93.85;100456.80;109184;275;39264;-70
2023/10/23 08:50:50;;;;;;;23.00;17.60;;;;;;;14.51;93.71;100454.79;109174;275;38455;-70
2023/10/23 08:53:31;;;;;;;24.80;18.60;;;;;;;14.54;93.45;100455.84;109210;275;38200;-72
2023/10/23 08:56:06;;;;;;;28.90;18.50;;;;;;;14.55;93.14;100457.70;109229;275;38222;-70
2023/10/23 08:58:42;;;;;;;23.20;17.10;;;;;;;14.57;92.86;100459.50;109216;275;38328;-70
2023/10/23 09:01:16;;;;;;;20.60;15.30;;;;;;;14.55;92.33;100464.36;109206;275;39329;-70
2023/10/23 09:03:50;;;;;;;19.90;16.40;;;;;;;14.59;92.10;100465.23;109207;275;39340;-72
2023/10/23 09:06:27;;;;;;;20.80;15.90;;;;;;;14.68;92.40;100464.20;109140;275;38217;-71
2023/10/23 09:09:06;;;;;;;23.70;17.10;;;;;;;14.76;92.17;100460.27;109170;275;38826;-66
2023/10/23 09:11:56;;;;;;;18.40;15.40;;;;;;;14.83;92.10;100460.95;109155;275;38715;-67
2023/10/23 09:14:35;;;;;;;17.90;15.80;;;;;;;14.88;91.47;100458.72;109136;275;38868;-67
2023/10/23 09:17:11;;;;;;;18.80;15.80;;;;;;;14.95;91.11;100462.05;109141;275;39651;-66
2023/10/23 09:19:50;;;;;;;19.80;16.50;;;;;;;15.02;90.85;100463.59;109207;275;38483;-70
2023/10/23 09:22:25;;;;;;;21.10;16.00;;;;;;;15.06;90.92;100464.41;109183;275;39366;-70
2023/10/23 09:25:00;;;;;;;19.60;15.50;;;;;;;15.12;90.60;100467.06;109191;275;38954;-70
2023/10/23 09:27:41;;;;;;;17.90;15.00;;;;;;;15.17;89.79;100472.06;109272;275;39165;-67
2023/10/23 09:30:29;;;;;;;19.80;16.10;;;;;;;15.24;89.41;100476.05;109155;275;39789;-66
2023/10/23 09:33:14;;;;;;;19.90;15.40;;;;;;;15.32;89.41;100475.08;109178;275;39368;-66
2023/10/23 09:35:53;;;;;;;20.80;15.70;;;;;;;15.38;89.53;100480.05;109198;275;38333;-67
2023/10/23 09:38:32;;;;;;;19.40;15.70;;;;;;;15.41;89.38;100483.18;109244;275;38281;-70
2023/10/23 09:41:14;;;;;;;19.00;15.90;;;;;;;15.43;88.64;100489.40;109203;275;38850;-69
2023/10/23 09:43:51;;;;;;;21.40;14.80;;;;;;;15.41;87.71;100486.02;109326;275;38345;-67
2023/10/23 09:46:50;;;;;;;19.40;15.30;;;;;;;15.42;87.13;100480.86;109221;275;40067;-67
2023/10/23 09:49:29;;;;;;;21.90;16.90;;;;;;;15.44;86.99;100479.34;109240;275;38272;-67
2023/10/23 09:52:05;;;;;;;18.20;16.00;;;;;;;15.45;87.57;100477.88;109172;275;39620;-66
2023/10/23 09:54:45;;;;;;;19.00;14.80;;;;;;;15.45;87.70;100476.48;109205;275;38278;-67
2023/10/23 09:57:22;;;;;;;17.20;15.00;;;;;;;15.48;87.90;100475.42;109222;275;38721;-67
2023/10/23 10:00:00;;;;;;;17.20;15.00;;;;;;;15.48;88.03;100471.55;109213;275;38252;-70
2023/10/23 10:02:46;;;;;;;18.80;14.50;;;;;;;15.47;87.73;100468.59;109240;275;38470;-68
2023/10/23 10:05:33;;;;;;;17.40;14.30;;;;;;;15.50;87.47;100468.81;109183;275;38466;-66
2023/10/23 10:08:17;;;;;;;18.80;15.70;;;;;;;15.50;87.38;100468.61;109186;275;38338;-67
2023/10/23 10:10:58;;;;;;;19.50;15.10;;;;;;;15.49;87.03;100469.55;109238;275;38472;-66
2023/10/23 10:13:40;;;;;;;16.20;14.40;;;;;;;15.46;86.94;100467.81;109233;275;39617;-67
2023/10/23 10:16:20;;;;;;;16.80;15.00;;;;;;;15.40;86.77;100468.88;109198;275;38177;-68
2023/10/23 10:18:59;;;;;;;19.30;15.60;;;;;;;15.36;86.80;100474.90;109204;275;38115;-67
2023/10/23 10:21:36;;;;;;;18.20;15.90;;;;;;;15.31;86.79;100474.29;109134;275;175156;-66
2023/10/23 10:24:14;;;;;;;15.90;14.20;;;;;;;15.26;86.40;100471.23;109351;275;39317;-71
2023/10/23 10:26:51;;;;;;;15.80;13.70;;;;;;;15.21;85.86;100476.90;109401;275;38230;-70
2023/10/23 10:29:29;;;;;;;15.10;13.50;;;;;;;15.17;85.65;100476.98;109430;275;38497;-66
2023/10/23 10:32:20;;;;;;;15.90;14.30;;;;;;;15.13;85.92;100478.98;109375;275;39719;-66
2023/10/23 10:35:00;;;;;;;15.90;14.20;;;;;;;15.08;86.20;100476.29;109353;275;38136;-70
2023/10/23 10:37:38;;;;;;;14.20;12.70;;;;;;;15.03;86.16;100474.45;109422;275;38770;-67
2023/10/23 10:40:14;;;;;;;14.40;12.50;;;;;;;15.03;86.57;100474.25;109305;275;38334;-66
2023/10/23 10:42:52;;;;;;;13.90;12.40;;;;;;;15.05;86.68;100472.37;109319;275;38402;-67
2023/10/23 10:45:31;;;;;;;15.20;13.50;;;;;;;15.07;87.09;100469.10;109364;275;38235;-67
2023/10/23 10:48:06;;;;;;;15.70;13.30;;;;;;;15.08;87.55;100470.82;109391;275;39539;-70
2023/10/23 10:50:42;;;;;;;15.70;12.50;;;;;;;15.09;87.54;100471.25;108506;276;38719;-69
2023/10/23 10:53:19;;;;;;;12.30;11.00;;;;;;;15.12;87.05;100465.33;109272;275;39448;-70
2023/10/23 10:55:58;;;;;;;13.50;11.40;;;;;;;15.13;86.96;100470.00;109251;275;38253;-71
2023/10/23 10:58:32;;;;;;;13.30;12.00;;;;;;;15.14;86.54;100467.66;109260;275;38528;-70
2023/10/23 11:01:07;;;;;;;14.30;12.60;;;;;;;15.14;86.13;100467.31;109213;275;38762;-69
2023/10/23 11:03:45;;;;;;;14.70;12.70;;;;;;;15.14;86.09;100464.13;109233;275;38284;-70
2023/10/23 11:06:18;;;;;;;16.30;12.40;;;;;;;15.14;85.66;100463.27;109247;275;38436;-70
2023/10/23 11:08:54;;;;;;;13.20;11.50;;;;;;;15.13;85.02;100464.75;109263;275;39661;-66
2023/10/23 11:11:37;;;;;;;14.00;12.40;;;;;;;15.14;85.09;100463.80;109227;275;38418;-67
2023/10/23 11:14:12;;;;;;;14.30;12.80;;;;;;;15.13;85.26;100460.17;109233;275;38520;-70
2023/10/23 11:16:50;;;;;;;16.30;14.40;;;;;;;15.12;85.30;100455.84;109049;275;38303;-70
2023/10/23 11:19:25;;;;;;;14.30;12.90;;;;;;;15.11;85.71;100457.66;109221;275;40003;-67
2023/10/23 11:22:21;;;;;;;13.60;12.20;;;;;;;15.11;85.45;100455.54;109200;275;38454;-65
2023/10/23 11:24:58;;;;;;;15.00;13.40;;;;;;;15.13;85.19;100456.33;109223;275;39365;-69
2023/10/23 11:27:40;;;;;;;15.40;13.40;;;;;;;15.14;85.38;100458.38;109215;275;39651;-69
2023/10/23 11:30:16;;;;;;;15.50;13.90;;;;;;;15.15;85.67;100461.08;109210;275;39689;-66
2023/10/23 11:32:56;;;;;;;16.10;13.10;;;;;;;15.16;85.20;100460.19;109079;275;175210;-71
2023/10/23 11:35:43;;;;;;;16.30;12.60;;;;;;;15.15;85.27;100462.52;109170;275;38454;-70
2023/10/23 11:38:28;;;;;;;12.80;11.50;;;;;;;15.17;85.30;100463.63;109233;275;38408;-67
2023/10/23 11:41:03;;;;;;;13.20;11.80;;;;;;;15.20;85.32;100464.84;109156;275;38544;-66
2023/10/23 11:43:41;;;;;;;13.90;12.50;;;;;;;15.23;84.99;100464.52;109213;275;38338;-66
2023/10/23 11:46:15;;;;;;;14.20;12.80;;;;;;;15.24;84.69;100461.85;109161;275;40083;-67
2023/10/23 11:48:52;;;;;;;14.50;13.00;;;;;;;15.19;84.78;100461.56;109184;275;39629;-67
2023/10/23 11:51:32;;;;;;;12.40;11.20;;;;;;;15.17;84.94;100462.58;109128;275;38184;-66
2023/10/23 11:54:14;;;;;;;12.50;10.50;;;;;;;15.17;84.66;100457.30;109250;275;39900;-67
2023/10/23 11:56:49;;;;;;;12.50;11.00;;;;;;;15.20;84.60;100462.41;109165;275;38733;-66
2023/10/23 11:59:25;;;;;;;12.70;11.50;;;;;;;15.22;84.91;100465.48;109182;275;38515;-66
2023/10/23 12:02:06;;;;;;;12.90;11.60;;;;;;;15.24;85.30;100467.27;109183;275;38153;-66
2023/10/23 12:04:45;;;;;;;14.30;12.70;;;;;;;15.26;85.02;100465.92;109187;275;39408;-66
2023/10/23 12:07:30;;;;;;;12.60;10.90;;;;;;;15.29;84.32;100466.49;109166;275;38292;-66